Time;durP1;ratioP1;P1;durP2;ratioP2;P2;SDS_P1;SDS_P2;PMS_P1;PMS_P2;Temp;Humidity;BMP_temperature;BMP_pressure;BME280_temperature;BME280_humidity;BME280_pressure;Samples;Min_cycle;Max_cycle;Signal;HPM_P1;HPM_P2
2022/06/20 00:01:23;;;;;;;3.70;2.00;;;;;16.00;97429.40;;;;110606;1253;41239;-65
2022/06/20 00:03:54;;;;;;;4.40;2.00;;;;;16.00;97430.20;;;;110532;1253;41962;-66
2022/06/20 00:06:25;;;;;;;6.40;2.40;;;;;16.00;97420.80;;;;110563;1253;41156;-66
2022/06/20 00:08:55;;;;;;;7.10;2.70;;;;;15.96;97420.80;;;;110509;1253;41160;-66
2022/06/20 00:11:36;;;;;;;7.30;2.90;;;;;15.90;97414.20;;;;110540;1253;41593;-65
2022/06/20 00:14:06;;;;;;;6.70;2.40;;;;;15.80;97415.00;;;;110621;1251;42483;-65
2022/06/20 00:16:36;;;;;;;4.90;2.20;;;;;15.70;97414.20;;;;110399;1253;41260;-66
2022/06/20 00:19:09;;;;;;;4.90;2.00;;;;;15.70;97414.60;;;;110559;1253;41192;-66
2022/06/20 00:21:40;;;;;;;4.80;2.20;;;;;15.60;97410.40;;;;110499;1253;41783;-65
2022/06/20 00:24:10;;;;;;;5.40;2.40;;;;;15.60;97406.60;;;;110508;1253;41196;-66
2022/06/20 00:26:39;;;;;;;4.40;2.00;;;;;15.60;97405.60;;;;110562;1253;41625;-63
2022/06/20 00:29:12;;;;;;;4.90;2.30;;;;;15.60;97403.00;;;;110585;1253;41249;-65
2022/06/20 00:31:43;;;;;;;6.40;2.70;;;;;15.58;97401.00;;;;110567;1253;41519;-65
2022/06/20 00:34:13;;;;;;;8.60;2.90;;;;;15.50;97402.00;;;;110599;1252;41146;-66
2022/06/20 00:36:46;;;;;;;5.10;2.30;;;;;15.40;97403.60;;;;110486;1254;41146;-65
2022/06/20 00:39:19;;;;;;;4.30;2.10;;;;;15.40;97399.40;;;;110440;1256;41180;-65
2022/06/20 00:41:49;;;;;;;4.80;2.10;;;;;15.40;97408.80;;;;110496;1254;41187;-65
2022/06/20 00:44:44;;;;;;;4.30;1.90;;;;;15.30;97406.00;;;;110468;1254;41206;-66
2022/06/20 00:47:17;;;;;;;4.60;2.10;;;;;15.30;97405.20;;;;110520;1253;41272;-65
2022/06/20 00:49:52;;;;;;;4.50;2.10;;;;;15.30;97398.20;;;;110451;1253;41138;-65
2022/06/20 00:52:41;;;;;;;5.30;2.40;;;;;15.20;97399.80;;;;110517;1253;41730;-66
2022/06/20 00:55:36;;;;;;;6.80;2.40;;;;;15.20;97402.20;;;;110615;1253;41167;-66
2022/06/20 00:58:36;;;;;;;9.00;2.70;;;;;15.10;97392.80;;;;110556;1253;41285;-65
2022/06/20 01:01:12;;;;;;;5.60;2.30;;;;;15.00;97399.80;;;;110521;1253;41615;-65
2022/06/20 01:03:49;;;;;;;5.30;2.30;;;;;14.96;97395.00;;;;110550;1253;41332;-66
2022/06/20 01:06:30;;;;;;;3.80;1.90;;;;;14.90;97391.60;;;;110563;1253;41485;-65
2022/06/20 01:09:05;;;;;;;4.20;2.10;;;;;14.90;97389.00;;;;110624;1252;41742;-66
2022/06/20 01:11:49;;;;;;;4.70;2.00;;;;;14.90;97385.20;;;;110552;1253;41526;-66
2022/06/20 01:14:33;;;;;;;5.70;2.00;;;;;14.80;97387.60;;;;110504;1253;41248;-64
2022/06/20 01:17:17;;;;;;;5.30;2.30;;;;;14.80;97385.20;;;;110513;1254;41272;-65
2022/06/20 01:19:59;;;;;;;5.10;2.30;;;;;14.80;97388.40;;;;110730;1253;42045;-65
2022/06/20 01:22:36;;;;;;;8.00;2.20;;;;;14.80;97388.20;;;;110535;1253;41615;-66
2022/06/20 01:25:39;;;;;;;4.50;2.10;;;;;14.78;97389.60;;;;110566;1253;41600;-66
2022/06/20 01:28:15;;;;;;;4.50;2.20;;;;;14.70;97389.40;;;;110563;1253;42350;-65
2022/06/20 01:30:47;;;;;;;5.70;2.50;;;;;14.70;97389.00;;;;110286;1256;41798;-66
2022/06/20 01:33:20;;;;;;;4.50;2.10;;;;;14.70;97391.40;;;;110499;1254;41269;-65
2022/06/20 01:38:41;;;;;;;7.40;2.30;;;;;14.70;97387.80;;;;110504;1253;41296;-66
2022/06/20 01:44:03;;;;;;;7.10;3.00;;;;;14.70;97388.40;;;;110498;1254;42446;-65
2022/06/20 01:46:35;;;;;;;9.50;3.10;;;;;14.72;97388.00;;;;110525;1254;41185;-67
2022/06/20 01:49:19;;;;;;;9.00;2.80;;;;;14.80;97389.40;;;;110467;1254;41162;-64
2022/06/20 01:52:06;;;;;;;6.90;2.80;;;;;14.80;97389.20;;;;110352;1256;41154;-66
2022/06/20 01:54:40;;;;;;;7.20;3.00;;;;;14.68;97388.80;;;;110501;1253;41874;-66
2022/06/20 01:57:13;;;;;;;7.40;2.70;;;;;14.54;97392.00;;;;110544;1254;41604;-66
2022/06/20 02:00:04;;;;;;;4.70;2.30;;;;;14.50;97392.00;;;;110490;1253;41388;-65
2022/06/20 02:02:38;;;;;;;5.60;2.60;;;;;14.50;97397.00;;;;110463;1252;41539;-66
2022/06/20 02:05:12;;;;;;;6.00;3.00;;;;;14.40;97391.60;;;;110470;1253;41149;-67
2022/06/20 02:07:43;;;;;;;5.40;2.40;;;;;14.38;97394.60;;;;110263;1255;41733;-67
2022/06/20 02:10:25;;;;;;;6.40;2.70;;;;;14.30;97396.20;;;;110461;1253;41635;-65
2022/06/20 02:12:59;;;;;;;5.60;2.50;;;;;14.38;97395.00;;;;110259;1255;41200;-65
2022/06/20 02:15:31;;;;;;;5.40;2.50;;;;;14.30;97394.20;;;;110344;1255;41157;-65
2022/06/20 02:18:04;;;;;;;5.60;2.40;;;;;14.30;97392.60;;;;110335;1256;41269;-66
2022/06/20 02:20:46;;;;;;;6.70;2.40;;;;;14.30;97393.80;;;;110499;1254;41165;-66
2022/06/20 02:23:19;;;;;;;7.70;2.70;;;;;14.20;97395.20;;;;110535;1254;41994;-66
2022/06/20 02:25:53;;;;;;;4.50;2.20;;;;;14.20;97391.20;;;;110476;1254;41186;-66
2022/06/20 02:28:32;;;;;;;6.30;2.50;;;;;14.20;97392.80;;;;110494;1254;41653;-66
2022/06/20 02:31:04;;;;;;;5.10;2.30;;;;;14.20;97394.00;;;;110350;1255;42416;-66
2022/06/20 02:33:34;;;;;;;7.60;2.90;;;;;14.18;97390.60;;;;110504;1253;41269;-66
2022/06/20 02:36:06;;;;;;;5.90;2.50;;;;;14.20;97388.40;;;;110465;1253;41507;-65
2022/06/20 02:38:36;;;;;;;6.20;2.60;;;;;14.20;97392.20;;;;110284;1256;41139;-66
2022/06/20 02:41:06;;;;;;;5.90;2.50;;;;;14.18;97387.20;;;;110537;1253;41183;-65
2022/06/20 02:43:47;;;;;;;;;;;;;14.20;97384.60;;;;110505;1253;41197;-65
2022/06/20 02:46:21;;;;;;;5.50;2.20;;;;;14.10;97385.40;;;;110531;1255;42194;-65
2022/06/20 02:48:52;;;;;;;7.70;3.20;;;;;14.14;97386.00;;;;110515;1255;42499;-65
2022/06/20 02:51:26;;;;;;;7.20;3.10;;;;;14.20;97386.80;;;;110505;1253;42455;-66
2022/06/20 02:54:00;;;;;;;6.30;2.90;;;;;14.30;97385.00;;;;110460;1256;42434;-65
2022/06/20 02:56:37;;;;;;;5.90;2.70;;;;;14.30;97384.80;;;;110590;1253;41158;-64
2022/06/20 02:59:20;;;;;;;7.10;2.70;;;;;14.30;97386.00;;;;110563;1253;41518;-65
2022/06/20 03:02:06;;;;;;;6.50;2.40;;;;;14.30;97384.80;;;;110508;1253;41143;-65
2022/06/20 03:04:41;;;;;;;6.10;2.30;;;;;14.30;97377.20;;;;110525;1255;41294;-66
2022/06/20 03:07:14;;;;;;;5.60;2.40;;;;;14.28;97370.20;;;;110391;1253;41623;-66
2022/06/20 03:09:46;;;;;;;6.20;2.50;;;;;14.30;97367.00;;;;110462;1255;41267;-66
2022/06/20 03:12:17;;;;;;;5.40;2.40;;;;;14.30;97367.80;;;;110492;1253;41862;-65
2022/06/20 03:14:53;;;;;;;5.40;2.30;;;;;14.30;97368.60;;;;110389;1253;41267;-64
2022/06/20 03:17:24;;;;;;;5.50;2.40;;;;;14.30;97376.60;;;;110441;1253;41454;-65
2022/06/20 03:19:58;;;;;;;5.20;2.40;;;;;14.40;97378.00;;;;110441;1253;41844;-66
2022/06/20 03:22:37;;;;;;;5.30;2.60;;;;;14.40;97373.40;;;;110372;1255;41137;-66
2022/06/20 03:25:14;;;;;;;6.70;2.80;;;;;14.48;97369.80;;;;110490;1253;42579;-68
2022/06/20 03:27:56;;;;;;;4.90;2.40;;;;;14.50;97368.60;;;;110318;1255;41169;-67
2022/06/20 03:31:01;;;;;;;7.50;3.30;;;;;14.58;97363.80;;;;110424;1256;42370;-66
2022/06/20 03:33:41;;;;;;;8.40;3.40;;;;;14.60;97364.80;;;;110497;1254;41260;-66
2022/06/20 03:36:32;;;;;;;6.60;3.10;;;;;14.68;97366.40;;;;110359;1254;42873;-67
2022/06/20 03:39:22;;;;;;;7.80;3.10;;;;;14.70;97363.60;;;;110366;1253;41318;-66
2022/06/20 03:42:10;;;;;;;5.50;2.60;;;;;14.80;97362.80;;;;110111;1255;41641;-66
2022/06/20 03:44:45;;;;;;;5.70;2.60;;;;;14.80;97356.00;;;;110432;1254;41249;-66
2022/06/20 03:47:47;;;;;;;6.00;2.70;;;;;14.90;97356.00;;;;110483;1253;41135;-66
2022/06/20 03:50:32;;;;;;;6.90;2.80;;;;;15.00;97353.20;;;;110575;1253;41747;-66
2022/06/20 03:53:08;;;;;;;6.80;3.10;;;;;15.02;97355.20;;;;110514;1254;41844;-67
2022/06/20 03:55:44;;;;;;;7.70;3.30;;;;;15.10;97351.20;;;;110574;1253;41492;-66
2022/06/20 03:58:27;;;;;;;8.20;3.40;;;;;15.20;97351.00;;;;110419;1256;41373;-66
2022/06/20 04:01:13;;;;;;;9.70;3.10;;;;;15.30;97353.00;;;;110358;1254;41627;-66
2022/06/20 04:03:54;;;;;;;6.80;2.90;;;;;15.40;97352.60;;;;110533;1255;41259;-65
2022/06/20 04:06:39;;;;;;;6.80;2.90;;;;;15.50;97343.20;;;;110334;1253;41149;-65
2022/06/20 04:12:42;;;;;;;9.80;3.80;;;;;15.70;97348.80;;;;110472;1256;41277;-68
2022/06/20 04:15:26;;;;;;;7.40;3.10;;;;;15.78;97349.40;;;;110537;1253;41140;-65
2022/06/20 04:20:58;;;;;;;7.10;3.30;;;;;16.10;97348.20;;;;110522;1254;41220;-67
2022/06/20 04:23:38;;;;;;;8.80;3.30;;;;;16.34;97350.00;;;;110496;1255;41155;-66
2022/06/20 04:26:14;;;;;;;6.20;2.80;;;;;17.48;97327.60;;;;110462;1255;41149;-66
2022/06/20 04:29:19;;;;;;;6.40;3.00;;;;;18.82;97315.00;;;;110255;1256;41329;-65
2022/06/20 04:32:06;;;;;;;9.00;3.10;;;;;20.30;97309.60;;;;110432;1254;41916;-67
2022/06/20 04:34:52;;;;;;;10.00;2.90;;;;;21.46;97299.80;;;;110296;1255;41389;-66
2022/06/20 04:37:28;;;;;;;11.90;3.10;;;;;22.38;97294.80;;;;110274;1257;41915;-66
2022/06/20 04:40:10;;;;;;;8.00;3.20;;;;;23.10;97294.60;;;;110241;1256;41265;-67
2022/06/20 04:42:51;;;;;;;7.10;2.70;;;;;23.76;97294.80;;;;110380;1255;41293;-68
2022/06/20 04:45:37;;;;;;;6.70;2.50;;;;;24.42;97294.60;;;;110350;1255;41149;-65
2022/06/20 04:48:17;;;;;;;6.10;2.50;;;;;25.12;97289.40;;;;110343;1256;41621;-66
2022/06/20 04:50:56;;;;;;;5.80;2.50;;;;;25.70;97288.60;;;;110346;1253;41155;-66
2022/06/20 04:53:32;;;;;;;6.00;2.40;;;;;26.24;97286.20;;;;110291;1256;41563;-66
2022/06/20 04:56:05;;;;;;;4.70;2.30;;;;;26.80;97287.60;;;;110545;1255;41262;-65
2022/06/20 04:58:39;;;;;;;4.30;2.10;;;;;27.20;97286.60;;;;110468;1253;41151;-65
2022/06/20 05:01:09;;;;;;;7.90;2.40;;;;;27.56;97288.60;;;;110382;1256;42064;-65
2022/06/20 05:03:45;;;;;;;6.30;2.70;;;;;27.96;97281.40;;;;110380;1255;41161;-66
2022/06/20 05:06:21;;;;;;;6.50;2.70;;;;;28.10;97280.80;;;;110326;1255;41545;-66
2022/06/20 05:08:53;;;;;;;5.20;2.40;;;;;28.22;97275.80;;;;110494;1255;42200;-65
2022/06/20 05:11:42;;;;;;;8.00;2.70;;;;;28.22;97277.00;;;;110228;1257;41349;-66
2022/06/20 05:14:25;;;;;;;8.30;2.70;;;;;28.10;97276.40;;;;110509;1255;41480;-66
2022/06/20 05:17:01;;;;;;;6.20;2.50;;;;;28.10;97270.40;;;;110232;1256;41722;-66
2022/06/20 05:19:44;;;;;;;6.50;2.50;;;;;28.20;97271.40;;;;110307;1256;41171;-67
2022/06/20 05:22:19;;;;;;;8.90;2.50;;;;;28.24;97267.60;;;;110277;1255;41883;-66
2022/06/20 05:24:57;;;;;;;5.70;2.20;;;;;28.30;97270.00;;;;110158;1257;41693;-66
2022/06/20 05:27:43;;;;;;;6.30;2.40;;;;;28.38;97274.80;;;;110370;1256;41163;-66
2022/06/20 05:30:19;;;;;;;6.10;2.70;;;;;27.54;97295.00;;;;110489;1254;42033;-67
2022/06/20 05:32:56;;;;;;;7.30;2.80;;;;;26.18;97301.00;;;;110427;1255;41392;-67
2022/06/20 05:35:54;;;;;;;5.00;2.20;;;;;25.28;97304.40;;;;110491;1253;41267;-66
2022/06/20 05:38:30;;;;;;;5.50;2.50;;;;;24.60;97305.80;;;;110514;1254;41946;-66
2022/06/20 05:41:00;;;;;;;5.70;2.50;;;;;24.14;97300.20;;;;110518;1254;41408;-66
2022/06/20 05:43:30;;;;;;;6.60;2.50;;;;;24.10;97305.00;;;;110538;1254;41949;-66
2022/06/20 05:46:03;;;;;;;8.20;2.90;;;;;23.70;97305.60;;;;110297;1253;41733;-68
2022/06/20 05:48:47;;;;;;;7.20;2.80;;;;;23.32;97307.80;;;;110547;1253;41290;-67
2022/06/20 05:51:20;;;;;;;5.90;2.60;;;;;22.82;97310.80;;;;110376;1255;41187;-65
2022/06/20 05:54:14;;;;;;;7.20;2.70;;;;;22.60;97305.60;;;;110506;1253;41728;-67
2022/06/20 05:56:49;;;;;;;6.60;2.80;;;;;22.72;97301.40;;;;110448;1255;42436;-66
2022/06/20 05:59:28;;;;;;;6.50;2.90;;;;;23.34;97277.00;;;;110402;1255;41714;-66
2022/06/20 06:02:02;;;;;;;6.20;2.80;;;;;23.96;97269.00;;;;110535;1253;41718;-67
2022/06/20 06:04:50;;;;;;;9.30;3.00;;;;;24.64;97271.60;;;;110421;1253;41587;-68
2022/06/20 06:07:28;;;;;;;6.00;2.60;;;;;25.60;97268.00;;;;110492;1253;41159;-68
2022/06/20 06:09:57;;;;;;;5.10;2.40;;;;;26.10;97264.20;;;;110518;1253;41152;-67
2022/06/20 06:13:13;;;;;;;5.70;2.30;;;;;26.80;97262.60;;;;110484;1253;41146;-67
2022/06/20 06:19:00;;;;;;;6.10;2.40;;;;;27.66;97256.20;;;;110526;1253;41157;-66
2022/06/20 06:21:30;;;;;;;4.80;2.20;;;;;27.80;97254.60;;;;110450;1254;41156;-64
2022/06/20 06:24:00;;;;;;;8.40;2.50;;;;;28.00;97252.80;;;;110331;1256;41163;-66
2022/06/20 06:26:29;;;;;;;4.50;2.00;;;;;28.40;97259.00;;;;110361;1254;41403;-68
2022/06/20 06:28:58;;;;;;;4.80;2.40;;;;;28.50;97254.00;;;;110507;1253;41261;-66
2022/06/20 06:31:32;;;;;;;4.10;2.00;;;;;29.18;97248.40;;;;110323;1255;42368;-68
2022/06/20 06:34:24;;;;;;;4.80;2.20;;;;;29.60;97248.20;;;;110360;1255;41320;-66
2022/06/20 06:37:03;;;;;;;6.00;2.40;;;;;30.06;97250.60;;;;110540;1253;41547;-67
2022/06/20 06:39:35;;;;;;;4.70;2.00;;;;;30.14;97250.40;;;;110464;1253;41254;-66
2022/06/20 06:42:13;;;;;;;5.80;2.30;;;;;30.10;97250.40;;;;110481;1253;42062;-66
2022/06/20 06:44:44;;;;;;;4.00;2.00;;;;;30.40;97249.40;;;;110461;1254;41835;-66
2022/06/20 06:47:22;;;;;;;5.30;2.40;;;;;30.52;97244.60;;;;110552;1252;41171;-67
2022/06/20 06:49:57;;;;;;;10.50;2.60;;;;;30.66;97244.40;;;;110463;1254;41585;-66
2022/06/20 06:52:40;;;;;;;5.00;2.30;;;;;30.54;97241.60;;;;110528;1253;41616;-67
2022/06/20 06:55:44;;;;;;;5.90;2.30;;;;;30.70;97240.40;;;;110445;1253;42448;-66
2022/06/20 06:58:19;;;;;;;4.30;2.00;;;;;30.70;97239.60;;;;110638;1254;41877;-68
2022/06/20 07:01:17;;;;;;;5.70;2.30;;;;;30.56;97237.20;;;;110662;1253;41136;-67
2022/06/20 07:03:59;;;;;;;5.00;2.30;;;;;30.50;97239.80;;;;110423;1256;41163;-66
2022/06/20 07:06:41;;;;;;;6.80;2.30;;;;;30.52;97240.80;;;;110487;1254;41627;-67
2022/06/20 07:09:24;;;;;;;5.20;2.20;;;;;30.40;97241.20;;;;110471;1255;42413;-67
2022/06/20 07:12:03;;;;;;;5.40;2.20;;;;;29.68;97237.20;;;;110484;1253;41286;-67
2022/06/20 07:14:38;;;;;;;4.50;2.00;;;;;28.98;97238.80;;;;110517;1253;41392;-67
2022/06/20 07:17:14;;;;;;;4.60;2.10;;;;;28.40;97242.20;;;;110476;1253;42146;-68
2022/06/20 07:19:47;;;;;;;4.30;2.00;;;;;28.32;97242.60;;;;110526;1254;41137;-68
2022/06/20 07:22:17;;;;;;;5.30;2.40;;;;;27.84;97248.20;;;;110210;1256;41878;-68
2022/06/20 07:24:47;;;;;;;4.50;2.30;;;;;27.24;97251.80;;;;110415;1256;42081;-66
2022/06/20 07:27:26;;;;;;;6.20;2.20;;;;;26.98;97246.40;;;;110097;1254;504058;-68
2022/06/20 07:30:12;;;;;;;4.00;2.00;;;;;26.90;97251.60;;;;110504;1253;42407;-68
2022/06/20 07:32:48;;;;;;;4.70;2.20;;;;;27.20;97258.80;;;;110238;1256;42179;-68
2022/06/20 07:35:31;;;;;;;5.80;2.20;;;;;27.10;97258.20;;;;110258;1256;41157;-67
2022/06/20 07:38:21;;;;;;;6.00;2.50;;;;;27.00;97253.80;;;;110414;1256;43132;-67
2022/06/20 07:41:17;;;;;;;5.30;2.40;;;;;26.72;97260.20;;;;110332;1256;41255;-66
2022/06/20 07:44:12;;;;;;;5.20;2.30;;;;;26.62;97262.80;;;;110314;1256;41878;-67
2022/06/20 07:46:46;;;;;;;9.10;2.50;;;;;26.70;97260.20;;;;110484;1255;41819;-68
2022/06/20 07:49:29;;;;;;;6.30;2.50;;;;;26.50;97261.20;;;;110298;1255;41286;-67
2022/06/20 07:52:04;;;;;;;7.10;2.30;;;;;26.60;97263.00;;;;110514;1253;41148;-69
2022/06/20 07:54:37;;;;;;;6.20;2.70;;;;;26.60;97262.40;;;;110707;1253;41490;-68
2022/06/20 07:57:19;;;;;;;6.40;2.60;;;;;26.50;97259.00;;;;110645;1254;40741;-68
2022/06/20 08:00:09;;;;;;;6.50;2.70;;;;;26.40;97254.20;;;;110632;1253;41165;-68
2022/06/20 08:02:46;;;;;;;12.10;3.00;;;;;26.36;97255.00;;;;110638;1256;41148;-69
2022/06/20 08:05:33;;;;;;;6.40;2.60;;;;;26.50;97257.20;;;;110621;1255;41264;-67
2022/06/20 08:08:31;;;;;;;5.70;2.60;;;;;26.60;97250.40;;;;110483;1254;41149;-67
2022/06/20 08:14:26;;;;;;;9.60;4.20;;;;;26.62;97241.40;;;;110348;1256;41162;-68
2022/06/20 08:16:59;;;;;;;7.70;3.10;;;;;26.72;97234.60;;;;110465;1255;41379;-68
2022/06/20 08:19:30;;;;;;;6.00;2.60;;;;;27.10;97234.20;;;;110607;1255;41286;-67
2022/06/20 08:22:02;;;;;;;;;;;;;27.50;97235.60;;;;110332;1256;41525;-70
2022/06/20 08:24:37;;;;;;;9.10;3.60;;;;;27.70;97231.20;;;;110535;1255;41161;-68
2022/06/20 08:27:09;;;;;;;9.30;3.80;;;;;27.70;97228.80;;;;110384;1255;41727;-67
2022/06/20 08:29:47;;;;;;;9.30;4.30;;;;;27.60;97230.40;;;;110564;1254;41150;-68
2022/06/20 08:32:43;;;;;;;11.60;4.50;;;;;27.50;97225.80;;;;110492;1255;41183;-67
2022/06/20 08:35:19;;;;;;;8.40;3.30;;;;;27.40;97228.80;;;;110593;1255;41157;-68
2022/06/20 08:38:04;;;;;;;6.80;2.40;;;;;27.46;97230.40;;;;110545;1254;42044;-68
2022/06/20 08:40:42;;;;;;;9.10;4.00;;;;;27.78;97229.60;;;;110400;1256;41496;-68
2022/06/20 08:43:44;;;;;;;9.40;4.30;;;;;28.20;97226.80;;;;110441;1256;41272;-67
2022/06/20 08:46:35;;;;;;;8.40;3.80;;;;;28.20;97231.40;;;;110422;1255;41949;-67
2022/06/20 08:49:43;;;;;;;11.20;3.80;;;;;28.12;97229.60;;;;110425;1254;41574;-67
2022/06/20 08:52:48;;;;;;;7.20;2.70;;;;;28.40;97221.60;;;;110315;1256;41165;-66
2022/06/20 08:55:40;;;;;;;5.70;2.10;;;;;28.42;97219.40;;;;110531;1255;41355;-67
2022/06/20 08:58:28;;;;;;;5.10;2.20;;;;;28.64;97211.40;;;;110513;1254;41162;-69
2022/06/20 09:01:26;;;;;;;4.60;2.10;;;;;28.82;97205.60;;;;110521;1253;41175;-67
2022/06/20 09:04:10;;;;;;;6.50;2.30;;;;;29.00;97205.00;;;;110478;1254;41267;-68
2022/06/20 09:06:48;;;;;;;4.90;2.20;;;;;29.28;97202.60;;;;110472;1253;41223;-66
2022/06/20 09:09:31;;;;;;;4.30;2.00;;;;;29.70;97195.40;;;;110496;1253;41214;-67
2022/06/20 09:12:19;;;;;;;5.10;2.00;;;;;29.76;97194.40;;;;110452;1256;41548;-68
2022/06/20 09:15:16;;;;;;;5.40;2.20;;;;;30.28;97186.60;;;;110412;1253;42068;-67
2022/06/20 09:18:08;;;;;;;5.50;2.30;;;;;30.82;97178.40;;;;110522;1254;41878;-68
2022/06/20 09:21:16;;;;;;;8.60;2.40;;;;;30.80;97177.60;;;;110578;1253;41157;-67
2022/06/20 09:23:59;;;;;;;4.60;2.00;;;;;31.40;97170.80;;;;110055;1256;41163;-67
2022/06/20 09:26:41;;;;;;;6.20;2.20;;;;;31.46;97166.60;;;;110458;1255;41177;-67
2022/06/20 09:29:19;;;;;;;7.60;2.20;;;;;32.30;97163.20;;;;110459;1254;41727;-68
2022/06/20 09:32:06;;;;;;;7.50;2.60;;;;;32.74;97158.20;;;;110480;1256;41161;-68
2022/06/20 09:35:01;;;;;;;6.70;2.30;;;;;33.08;97148.40;;;;110574;1254;42494;-68
2022/06/20 09:37:51;;;;;;;6.50;2.00;;;;;33.68;97142.20;;;;110443;1256;41918;-68
2022/06/20 09:40:29;;;;;;;3.10;1.80;;;;;34.00;97139.20;;;;110498;1255;41631;-69
2022/06/20 09:43:03;;;;;;;3.40;1.70;;;;;34.54;97135.40;;;;110484;1255;41162;-68
2022/06/20 09:45:58;;;;;;;4.80;1.70;;;;;34.90;97131.20;;;;110626;1254;41900;-68
2022/06/20 09:48:30;;;;;;;4.70;2.00;;;;;35.38;97129.20;;;;110609;1255;42091;-69
2022/06/20 09:51:29;;;;;;;3.70;1.60;;;;;35.70;97122.80;;;;110504;1255;41174;-68
2022/06/20 09:54:14;;;;;;;4.40;1.70;;;;;35.80;97121.80;;;;110572;1256;41279;-68
2022/06/20 09:57:01;;;;;;;3.40;1.60;;;;;36.20;97116.40;;;;110522;1256;41264;-67
2022/06/20 09:59:55;;;;;;;4.30;1.80;;;;;36.56;97118.40;;;;110623;1255;41373;-68
2022/06/20 10:03:02;;;;;;;2.60;1.60;;;;;36.94;97110.80;;;;110651;1256;41163;-68
2022/06/20 10:05:34;;;;;;;3.20;1.50;;;;;36.86;97111.00;;;;110023;1260;41605;-69
2022/06/20 10:08:27;;;;;;;3.70;1.70;;;;;37.10;97108.40;;;;110244;1256;41385;-67
2022/06/20 10:11:12;;;;;;;3.70;1.60;;;;;37.34;97107.80;;;;110431;1256;41264;-66
2022/06/20 10:14:03;;;;;;;3.30;1.70;;;;;36.90;97100.60;;;;110424;1257;41520;-67
2022/06/20 10:16:45;;;;;;;3.40;1.60;;;;;36.98;97091.40;;;;110482;1253;41728;-69
2022/06/20 10:19:22;;;;;;;3.00;1.70;;;;;36.80;97101.20;;;;110522;1255;41158;-69
2022/06/20 10:22:06;;;;;;;2.90;1.50;;;;;37.00;97095.60;;;;110457;1256;41145;-69
2022/06/20 10:24:42;;;;;;;2.90;1.40;;;;;37.18;97093.20;;;;110465;1256;41140;-69
2022/06/20 10:27:28;;;;;;;3.10;1.50;;;;;37.40;97098.20;;;;110492;1256;41171;-67
2022/06/20 10:30:03;;;;;;;4.30;1.80;;;;;37.50;97095.00;;;;110380;1257;41579;-69
2022/06/20 10:32:40;;;;;;;3.20;1.40;;;;;37.04;97088.00;;;;110480;1257;42943;-68
2022/06/20 10:35:25;;;;;;;7.70;1.90;;;;;36.52;97091.40;;;;110573;1253;41163;-69
2022/06/20 10:38:03;;;;;;;5.60;1.60;;;;;36.42;97089.60;;;;110621;1253;41125;-68
2022/06/20 10:40:36;;;;;;;3.10;1.60;;;;;36.22;97077.40;;;;110630;1256;42379;-69
2022/06/20 10:43:21;;;;;;;3.70;1.60;;;;;35.42;97075.20;;;;110676;1252;41267;-69
2022/06/20 10:46:10;;;;;;;2.90;1.50;;;;;34.80;97078.00;;;;110531;1254;41755;-68
2022/06/20 10:49:17;;;;;;;3.90;1.50;;;;;34.88;97071.20;;;;110697;1253;41270;-69
2022/06/20 10:51:57;;;;;;;4.20;1.40;;;;;34.90;97072.60;;;;109852;1260;42582;-68
2022/06/20 10:54:44;;;;;;;;;;;;;35.22;97069.00;;;;109850;1261;41165;-69
2022/06/20 10:57:25;;;;;;;8.00;1.80;;;;;35.66;97065.20;;;;109943;1260;41171;-69
2022/06/20 10:59:59;;;;;;;2.80;1.40;;;;;36.48;97053.60;;;;109971;1261;41151;-66
2022/06/20 11:02:59;;;;;;;2.20;1.40;;;;;36.80;97044.60;;;;110005;1259;41285;-67
2022/06/20 11:05:46;;;;;;;3.50;1.50;;;;;37.38;97048.60;;;;109854;1261;42247;-69
2022/06/20 11:08:38;;;;;;;3.30;1.50;;;;;38.24;97037.60;;;;110060;1259;41167;-68
2022/06/20 11:11:31;;;;;;;3.40;1.50;;;;;39.00;97030.00;;;;110020;1262;41642;-69
2022/06/20 11:14:09;;;;;;;3.40;1.60;;;;;40.00;97036.20;;;;109842;1262;42609;-68
2022/06/20 11:16:55;;;;;;;2.80;1.40;;;;;40.26;97026.40;;;;110004;1261;41172;-69
2022/06/20 11:19:42;;;;;;;7.70;1.80;;;;;40.66;97027.20;;;;109976;1260;41507;-67
2022/06/20 11:22:51;;;;;;;2.80;1.50;;;;;41.08;97013.60;;;;109894;1262;41939;-68
2022/06/20 11:25:19;;;;;;;;;;;;;41.28;97013.40;;;;110149;1256;41201;-67
2022/06/20 11:28:25;;;;;;;2.40;1.40;;;;;41.90;97010.40;;;;110713;1253;41619;-69
2022/06/20 11:31:02;;;;;;;3.80;1.50;;;;;42.20;97006.20;;;;110691;1253;40746;-67
2022/06/20 11:36:51;;;;;;;3.70;1.50;;;;;41.50;97000.20;;;;110584;1254;42837;-67
2022/06/20 11:39:41;;;;;;;3.40;1.30;;;;;42.00;96990.80;;;;110689;1253;41701;-70
2022/06/20 11:42:10;;;;;;;6.60;1.80;;;;;42.28;96989.80;;;;110619;1254;41155;-69
2022/06/20 11:45:05;;;;;;;2.90;1.30;;;;;42.58;96986.20;;;;110621;1255;41821;-70
2022/06/20 11:47:52;;;;;;;1.90;1.30;;;;;41.86;96974.80;;;;110610;1254;42424;-68
2022/06/20 11:50:26;;;;;;;2.10;1.20;;;;;42.00;96975.80;;;;110628;1254;41148;-69
2022/06/20 11:53:02;;;;;;;2.10;1.30;;;;;41.70;96980.20;;;;110621;1256;41162;-68
2022/06/20 11:55:53;;;;;;;5.20;1.30;;;;;41.78;96977.80;;;;110443;1254;41149;-68
2022/06/20 11:58:32;;;;;;;3.00;1.50;;;;;41.56;96980.80;;;;110646;1254;41156;-68
2022/06/20 12:01:21;;;;;;;2.20;1.20;;;;;41.60;96984.00;;;;110671;1254;41402;-68
2022/06/20 12:04:09;;;;;;;4.00;1.50;;;;;41.50;96982.00;;;;110659;1254;41262;-68
2022/06/20 12:06:42;;;;;;;5.90;1.40;;;;;41.20;96980.40;;;;110593;1256;41206;-69
2022/06/20 12:09:20;;;;;;;2.80;1.50;;;;;40.64;96974.60;;;;110635;1255;42088;-69
2022/06/20 12:12:07;;;;;;;4.40;1.40;;;;;39.46;96976.00;;;;110509;1254;41148;-68
2022/06/20 12:14:59;;;;;;;5.00;1.80;;;;;38.74;96975.00;;;;110493;1254;41279;-69
2022/06/20 12:17:56;;;;;;;2.20;1.30;;;;;36.70;96966.60;;;;110334;1256;41741;-68
2022/06/20 12:23:31;;;;;;;3.60;1.40;;;;;36.30;96955.80;;;;110651;1253;41265;-68
2022/06/20 12:26:01;;;;;;;3.90;1.80;;;;;35.92;96959.40;;;;110490;1256;41148;-69
2022/06/20 12:28:40;;;;;;;1.70;1.30;;;;;35.70;96960.60;;;;110570;1254;42248;-69
2022/06/20 12:31:11;;;;;;;3.70;1.30;;;;;35.24;96956.80;;;;110498;1256;41952;-70
2022/06/20 12:33:43;;;;;;;3.30;1.40;;;;;35.08;96948.80;;;;110582;1254;41604;-69
2022/06/20 12:36:23;;;;;;;3.10;1.60;;;;;34.90;96957.80;;;;110550;1251;41905;-70
2022/06/20 12:38:58;;;;;;;;;;;;;34.84;96952.00;;;;110608;1254;41308;-70
2022/06/20 12:41:31;;;;;;;5.20;2.00;;;;;34.38;96948.00;;;;110544;1256;41267;-69
2022/06/20 12:44:06;;;;;;;2.90;1.50;;;;;34.10;96948.80;;;;110604;1256;41263;-68
2022/06/20 12:46:57;;;;;;;4.40;1.60;;;;;33.90;96944.00;;;;110595;1255;41285;-67
2022/06/20 12:49:45;;;;;;;5.50;1.80;;;;;33.90;96935.00;;;;110671;1254;42436;-69
2022/06/20 12:52:20;;;;;;;3.70;1.50;;;;;33.66;96922.60;;;;110644;1254;41143;-69
2022/06/20 12:54:53;;;;;;;3.80;1.70;;;;;33.50;96926.40;;;;110645;1254;41160;-68
2022/06/20 12:57:28;;;;;;;4.00;1.50;;;;;33.58;96926.20;;;;110582;1254;41339;-70
2022/06/20 13:00:17;;;;;;;2.90;1.40;;;;;33.60;96923.80;;;;110643;1255;41210;-69
2022/06/20 13:03:04;;;;;;;4.40;1.70;;;;;33.72;96917.20;;;;110644;1254;41506;-67
2022/06/20 13:05:36;;;;;;;3.00;1.50;;;;;33.74;96923.60;;;;110625;1254;41155;-68
2022/06/20 13:08:40;;;;;;;3.50;1.40;;;;;33.80;96927.80;;;;110592;1254;41173;-68
2022/06/20 13:11:30;;;;;;;3.70;1.50;;;;;33.90;96929.00;;;;110632;1254;41660;-68
2022/06/20 13:14:37;;;;;;;3.00;1.50;;;;;33.90;96921.40;;;;110542;1257;41599;-69
2022/06/20 13:17:15;;;;;;;5.60;1.70;;;;;33.90;96918.60;;;;110599;1257;41943;-68
2022/06/20 13:20:24;;;;;;;2.60;1.50;;;;;33.88;96914.20;;;;110567;1254;42168;-68
2022/06/20 13:23:26;;;;;;;3.10;1.50;;;;;33.34;96908.60;;;;110610;1254;41567;-68
2022/06/20 13:26:28;;;;;;;5.30;1.80;;;;;33.20;96901.40;;;;110624;1254;41287;-69
2022/06/20 13:29:12;;;;;;;3.10;1.50;;;;;33.20;96901.60;;;;110636;1254;41584;-67
2022/06/20 13:31:48;;;;;;;4.50;1.40;;;;;33.04;96898.80;;;;110474;1254;42364;-68
2022/06/20 13:34:32;;;;;;;3.80;1.60;;;;;33.00;96896.20;;;;110507;1254;41161;-68
2022/06/20 13:37:21;;;;;;;2.80;1.50;;;;;33.08;96898.60;;;;110605;1254;42143;-68
2022/06/20 13:40:28;;;;;;;3.50;1.70;;;;;33.06;96895.80;;;;110601;1254;41184;-70
2022/06/20 13:42:59;;;;;;;3.20;1.60;;;;;33.10;96893.60;;;;110065;1256;42275;-67